sensor_id;sensor_type;location;lat;lon;timestamp;P1;durP1;ratioP1;P2;durP2;ratioP2
38220;SDS011;24023;51.280;7.148;2022-12-18T00:00:11;7.6;;;4.7;;
38220;SDS011;24023;51.280;7.148;2022-12-18T00:05:06;4.7;;;3.7;;
38220;SDS011;24023;51.280;7.148;2022-12-18T00:10:08;4.7;;;3.7;;
38220;SDS011;24023;51.280;7.148;2022-12-18T00:15:08;4.7;;;3.7;;
38220;SDS011;24023;51.280;7.148;2022-12-18T00:20:08;3.8;;;3.0;;
38220;SDS011;24023;51.280;7.148;2022-12-18T01:25:07;5.2;;;4.0;;
38220;SDS011;24023;51.280;7.148;2022-12-18T01:30:09;5.5;;;3.8;;
38220;SDS011;24023;51.280;7.148;2022-12-18T01:35:06;5.5;;;3.8;;
38220;SDS011;24023;51.280;7.148;2022-12-18T01:40:09;5.5;;;3.8;;
38220;SDS011;24023;51.280;7.148;2022-12-18T01:45:27;4.2;;;3.4;;
38220;SDS011;24023;51.280;7.148;2022-12-18T01:50:09;4.2;;;3.4;;
38220;SDS011;24023;51.280;7.148;2022-12-18T01:55:06;4.4;;;3.3;;
38220;SDS011;24023;51.280;7.148;2022-12-18T02:00:11;4.4;;;3.3;;
38220;SDS011;24023;51.280;7.148;2022-12-18T02:05:06;5.5;;;3.4;;
38220;SDS011;24023;51.280;7.148;2022-12-18T02:10:09;5.5;;;3.4;;
38220;SDS011;24023;51.280;7.148;2022-12-18T02:15:10;5.5;;;3.4;;
38220;SDS011;24023;51.280;7.148;2022-12-18T02:20:11;4.4;;;3.3;;
38220;SDS011;24023;51.280;7.148;2022-12-18T02:25:11;4.4;;;3.3;;
38220;SDS011;24023;51.280;7.148;2022-12-18T02:30:09;5.0;;;3.6;;
38220;SDS011;24023;51.280;7.148;2022-12-18T02:35:08;5.0;;;3.6;;
38220;SDS011;24023;51.280;7.148;2022-12-18T02:40:08;5.0;;;3.6;;
38220;SDS011;24023;51.280;7.148;2022-12-18T02:45:09;4.2;;;3.5;;
38220;SDS011;24023;51.280;7.148;2022-12-18T02:50:10;4.2;;;3.5;;
38220;SDS011;24023;51.280;7.148;2022-12-18T02:55:09;4.0;;;3.2;;
38220;SDS011;24023;51.280;7.148;2022-12-18T03:00:11;4.0;;;3.2;;
38220;SDS011;24023;51.280;7.148;2022-12-18T03:05:08;4.0;;;3.2;;
38220;SDS011;24023;51.280;7.148;2022-12-18T03:10:08;4.9;;;3.0;;
38220;SDS011;24023;51.280;7.148;2022-12-18T03:15:08;4.9;;;3.0;;
38220;SDS011;24023;51.280;7.148;2022-12-18T03:20:09;4.0;;;2.9;;
38220;SDS011;24023;51.280;7.148;2022-12-18T03:25:07;4.0;;;2.9;;
38220;SDS011;24023;51.280;7.148;2022-12-18T03:30:12;4.0;;;2.9;;
38220;SDS011;24023;51.280;7.148;2022-12-18T03:35:07;3.8;;;2.9;;
38220;SDS011;24023;51.280;7.148;2022-12-18T03:40:08;3.8;;;2.9;;
38220;SDS011;24023;51.280;7.148;2022-12-18T03:45:12;3.2;;;2.9;;
38220;SDS011;24023;51.280;7.148;2022-12-18T03:50:10;3.2;;;2.9;;
38220;SDS011;24023;51.280;7.148;2022-12-18T03:55:06;4.2;;;3.5;;
38220;SDS011;24023;51.280;7.148;2022-12-18T04:00:12;4.2;;;3.5;;
38220;SDS011;24023;51.280;7.148;2022-12-18T04:05:08;4.2;;;3.5;;
38220;SDS011;24023;51.280;7.148;2022-12-18T04:10:07;2.8;;;2.5;;
38220;SDS011;24023;51.280;7.148;2022-12-18T04:15:07;2.8;;;2.5;;
38220;SDS011;24023;51.280;7.148;2022-12-18T04:20:08;3.0;;;2.6;;
38220;SDS011;24023;51.280;7.148;2022-12-18T04:25:06;3.0;;;2.6;;
38220;SDS011;24023;51.280;7.148;2022-12-18T04:30:11;3.0;;;2.6;;
38220;SDS011;24023;51.280;7.148;2022-12-18T04:35:10;3.1;;;2.5;;
38220;SDS011;24023;51.280;7.148;2022-12-18T04:40:08;3.1;;;2.5;;
38220;SDS011;24023;51.280;7.148;2022-12-18T04:45:09;3.9;;;2.5;;
38220;SDS011;24023;51.280;7.148;2022-12-18T04:50:08;3.9;;;2.5;;
38220;SDS011;24023;51.280;7.148;2022-12-18T04:55:06;3.9;;;2.5;;
38220;SDS011;24023;51.280;7.148;2022-12-18T05:00:13;2.4;;;2.1;;
38220;SDS011;24023;51.280;7.148;2022-12-18T05:05:07;2.4;;;2.1;;
38220;SDS011;24023;51.280;7.148;2022-12-18T05:10:08;3.2;;;2.4;;
38220;SDS011;24023;51.280;7.148;2022-12-18T05:15:08;3.2;;;2.4;;
38220;SDS011;24023;51.280;7.148;2022-12-18T05:20:08;2.8;;;2.3;;
38220;SDS011;24023;51.280;7.148;2022-12-18T05:25:08;2.8;;;2.3;;
38220;SDS011;24023;51.280;7.148;2022-12-18T05:30:09;2.8;;;2.3;;
38220;SDS011;24023;51.280;7.148;2022-12-18T05:35:07;2.9;;;2.4;;
38220;SDS011;24023;51.280;7.148;2022-12-18T05:40:08;2.9;;;2.4;;
38220;SDS011;24023;51.280;7.148;2022-12-18T05:45:18;3.5;;;2.7;;
38220;SDS011;24023;51.280;7.148;2022-12-18T05:50:07;3.5;;;2.7;;
38220;SDS011;24023;51.280;7.148;2022-12-18T05:55:06;3.5;;;2.7;;
38220;SDS011;24023;51.280;7.148;2022-12-18T06:00:11;3.0;;;2.4;;
38220;SDS011;24023;51.280;7.148;2022-12-18T06:05:07;3.0;;;2.4;;
38220;SDS011;24023;51.280;7.148;2022-12-18T06:10:08;2.6;;;2.0;;
38220;SDS011;24023;51.280;7.148;2022-12-18T06:15:08;2.6;;;2.0;;
38220;SDS011;24023;51.280;7.148;2022-12-18T06:20:08;2.6;;;2.0;;
38220;SDS011;24023;51.280;7.148;2022-12-18T06:25:06;2.9;;;2.2;;
38220;SDS011;24023;51.280;7.148;2022-12-18T06:30:10;2.9;;;2.2;;
38220;SDS011;24023;51.280;7.148;2022-12-18T06:35:06;3.6;;;2.7;;
38220;SDS011;24023;51.280;7.148;2022-12-18T06:40:08;3.6;;;2.7;;
38220;SDS011;24023;51.280;7.148;2022-12-18T06:45:10;3.6;;;2.7;;
38220;SDS011;24023;51.280;7.148;2022-12-18T06:50:07;4.6;;;3.0;;
38220;SDS011;24023;51.280;7.148;2022-12-18T06:55:07;4.6;;;3.0;;
38220;SDS011;24023;51.280;7.148;2022-12-18T07:00:11;3.7;;;3.1;;
38220;SDS011;24023;51.280;7.148;2022-12-18T07:05:06;3.7;;;3.1;;
38220;SDS011;24023;51.280;7.148;2022-12-18T07:10:08;4.1;;;3.4;;
38220;SDS011;24023;51.280;7.148;2022-12-18T07:15:08;4.1;;;3.4;;
38220;SDS011;24023;51.280;7.148;2022-12-18T07:20:08;4.1;;;3.4;;
38220;SDS011;24023;51.280;7.148;2022-12-18T07:25:07;4.6;;;3.1;;
38220;SDS011;24023;51.280;7.148;2022-12-18T07:30:10;4.6;;;3.1;;
38220;SDS011;24023;51.280;7.148;2022-12-18T07:35:07;5.1;;;3.8;;
38220;SDS011;24023;51.280;7.148;2022-12-18T07:40:08;5.1;;;3.8;;
38220;SDS011;24023;51.280;7.148;2022-12-18T07:45:11;5.1;;;3.8;;
38220;SDS011;24023;51.280;7.148;2022-12-18T07:50:08;4.7;;;4.0;;
38220;SDS011;24023;51.280;7.148;2022-12-18T07:55:07;4.7;;;4.0;;
38220;SDS011;24023;51.280;7.148;2022-12-18T08:00:11;4.5;;;3.5;;
38220;SDS011;24023;51.280;7.148;2022-12-18T08:05:06;4.5;;;3.5;;
38220;SDS011;24023;51.280;7.148;2022-12-18T08:10:08;4.5;;;3.5;;
38220;SDS011;24023;51.280;7.148;2022-12-18T08:15:08;3.8;;;3.0;;
38220;SDS011;24023;51.280;7.148;2022-12-18T08:20:09;3.8;;;3.0;;
38220;SDS011;24023;51.280;7.148;2022-12-18T08:25:06;5.1;;;3.6;;
38220;SDS011;24023;51.280;7.148;2022-12-18T08:30:10;5.1;;;3.6;;
38220;SDS011;24023;51.280;7.148;2022-12-18T08:35:06;5.1;;;3.6;;
38220;SDS011;24023;51.280;7.148;2022-12-18T08:40:08;4.5;;;3.7;;
38220;SDS011;24023;51.280;7.148;2022-12-18T08:45:09;4.5;;;3.7;;
38220;SDS011;24023;51.280;7.148;2022-12-18T08:50:09;4.1;;;3.1;;
38220;SDS011;24023;51.280;7.148;2022-12-18T08:55:07;4.1;;;3.1;;
38220;SDS011;24023;51.280;7.148;2022-12-18T09:00:11;4.8;;;3.5;;
38220;SDS011;24023;51.280;7.148;2022-12-18T09:05:06;4.8;;;3.5;;
38220;SDS011;24023;51.280;7.148;2022-12-18T09:10:07;4.8;;;3.5;;
38220;SDS011;24023;51.280;7.148;2022-12-18T09:15:10;3.6;;;3.1;;
38220;SDS011;24023;51.280;7.148;2022-12-18T09:20:08;3.6;;;3.1;;
38220;SDS011;24023;51.280;7.148;2022-12-18T09:25:08;4.1;;;2.9;;
38220;SDS011;24023;51.280;7.148;2022-12-18T09:30:10;4.1;;;2.9;;
38220;SDS011;24023;51.280;7.148;2022-12-18T09:35:07;4.2;;;3.0;;
38220;SDS011;24023;51.280;7.148;2022-12-18T09:40:12;4.2;;;3.0;;
38220;SDS011;24023;51.280;7.148;2022-12-18T09:45:11;4.2;;;3.0;;
38220;SDS011;24023;51.280;7.148;2022-12-18T09:50:15;3.1;;;2.5;;
38220;SDS011;24023;51.280;7.148;2022-12-18T09:55:09;3.1;;;2.5;;
38220;SDS011;24023;51.280;7.148;2022-12-18T10:00:16;3.3;;;2.3;;
38220;SDS011;24023;51.280;7.148;2022-12-18T10:05:07;3.3;;;2.3;;
38220;SDS011;24023;51.280;7.148;2022-12-18T10:10:09;3.3;;;2.3;;
38220;SDS011;24023;51.280;7.148;2022-12-18T10:15:10;3.3;;;2.5;;
38220;SDS011;24023;51.280;7.148;2022-12-18T10:20:10;3.3;;;2.5;;
38220;SDS011;24023;51.280;7.148;2022-12-18T10:25:10;3.1;;;2.7;;
38220;SDS011;24023;51.280;7.148;2022-12-18T10:30:12;3.1;;;2.7;;
38220;SDS011;24023;51.280;7.148;2022-12-18T10:35:07;4.7;;;2.7;;
38220;SDS011;24023;51.280;7.148;2022-12-18T10:40:10;4.7;;;2.7;;
38220;SDS011;24023;51.280;7.148;2022-12-18T10:45:09;4.7;;;2.7;;
38220;SDS011;24023;51.280;7.148;2022-12-18T10:50:10;4.7;;;2.7;;
38220;SDS011;24023;51.280;7.148;2022-12-18T10:55:15;3.8;;;2.7;;
38220;SDS011;24023;51.280;7.148;2022-12-18T11:00:20;3.8;;;2.7;;
38220;SDS011;24023;51.280;7.148;2022-12-18T11:05:22;3.7;;;2.7;;
38220;SDS011;24023;51.280;7.148;2022-12-18T11:10:14;3.7;;;2.7;;
38220;SDS011;24023;51.280;7.148;2022-12-18T11:15:13;3.7;;;2.7;;
38220;SDS011;24023;51.280;7.148;2022-12-18T11:20:25;4.9;;;3.0;;
38220;SDS011;24023;51.280;7.148;2022-12-18T11:25:16;4.9;;;3.0;;
38220;SDS011;24023;51.280;7.148;2022-12-18T11:30:20;4.9;;;3.0;;
38220;SDS011;24023;51.280;7.148;2022-12-18T11:35:11;4.0;;;2.9;;
38220;SDS011;24023;51.280;7.148;2022-12-18T11:40:10;4.0;;;2.9;;
38220;SDS011;24023;51.280;7.148;2022-12-18T11:45:20;3.7;;;2.7;;
38220;SDS011;24023;51.280;7.148;2022-12-18T11:50:10;4.0;;;3.0;;
38220;SDS011;24023;51.280;7.148;2022-12-18T11:55:10;4.0;;;3.0;;
38220;SDS011;24023;51.280;7.148;2022-12-18T12:00:12;4.1;;;3.2;;
38220;SDS011;24023;51.280;7.148;2022-12-18T12:05:12;4.4;;;3.6;;
38220;SDS011;24023;51.280;7.148;2022-12-18T12:10:12;4.4;;;3.6;;
38220;SDS011;24023;51.280;7.148;2022-12-18T12:15:10;4.6;;;3.7;;
38220;SDS011;24023;51.280;7.148;2022-12-18T12:20:10;4.6;;;3.7;;
38220;SDS011;24023;51.280;7.148;2022-12-18T12:25:16;4.6;;;3.6;;
38220;SDS011;24023;51.280;7.148;2022-12-18T12:30:11;4.6;;;3.6;;
38220;SDS011;24023;51.280;7.148;2022-12-18T12:35:10;4.8;;;4.2;;
38220;SDS011;24023;51.280;7.148;2022-12-18T12:40:10;4.8;;;4.2;;
38220;SDS011;24023;51.280;7.148;2022-12-18T12:45:20;9.5;;;7.6;;
38220;SDS011;24023;51.280;7.148;2022-12-18T12:50:12;9.5;;;7.6;;
38220;SDS011;24023;51.280;7.148;2022-12-18T12:55:07;7.5;;;5.5;;
38220;SDS011;24023;51.280;7.148;2022-12-18T13:00:11;7.5;;;5.5;;
38220;SDS011;24023;51.280;7.148;2022-12-18T13:05:09;7.2;;;5.9;;
38220;SDS011;24023;51.280;7.148;2022-12-18T13:10:12;7.2;;;5.9;;
38220;SDS011;24023;51.280;7.148;2022-12-18T13:15:19;7.2;;;5.9;;
38220;SDS011;24023;51.280;7.148;2022-12-18T13:20:10;7.9;;;5.9;;
38220;SDS011;24023;51.280;7.148;2022-12-18T13:25:43;7.9;;;5.9;;
38220;SDS011;24023;51.280;7.148;2022-12-18T13:30:32;8.4;;;6.0;;
38220;SDS011;24023;51.280;7.148;2022-12-18T13:35:38;8.4;;;6.0;;
38220;SDS011;24023;51.280;7.148;2022-12-18T13:45:34;7.7;;;6.3;;
38220;SDS011;24023;51.280;7.148;2022-12-18T13:50:09;7.7;;;6.3;;
38220;SDS011;24023;51.280;7.148;2022-12-18T13:55:07;9.9;;;7.8;;
38220;SDS011;24023;51.280;7.148;2022-12-18T14:00:16;9.9;;;7.8;;
38220;SDS011;24023;51.280;7.148;2022-12-18T14:05:20;9.9;;;7.8;;
38220;SDS011;24023;51.280;7.148;2022-12-18T14:10:11;9.3;;;7.3;;
38220;SDS011;24023;51.280;7.148;2022-12-18T14:15:10;9.3;;;7.3;;
38220;SDS011;24023;51.280;7.148;2022-12-18T14:20:12;9.3;;;7.3;;
38220;SDS011;24023;51.280;7.148;2022-12-18T14:25:13;10.0;;;7.8;;
38220;SDS011;24023;51.280;7.148;2022-12-18T14:30:27;10.0;;;7.8;;
38220;SDS011;24023;51.280;7.148;2022-12-18T14:35:12;9.7;;;7.8;;
38220;SDS011;24023;51.280;7.148;2022-12-18T14:40:11;9.7;;;7.8;;
38220;SDS011;24023;51.280;7.148;2022-12-18T14:45:41;9.7;;;7.8;;
38220;SDS011;24023;51.280;7.148;2022-12-18T14:50:11;10.8;;;8.6;;
38220;SDS011;24023;51.280;7.148;2022-12-18T14:55:13;18.7;;;10.4;;
38220;SDS011;24023;51.280;7.148;2022-12-18T15:00:14;18.7;;;10.4;;
38220;SDS011;24023;51.280;7.148;2022-12-18T15:05:16;10.4;;;9.3;;
38220;SDS011;24023;51.280;7.148;2022-12-18T15:10:10;10.4;;;9.3;;
38220;SDS011;24023;51.280;7.148;2022-12-18T15:15:43;12.0;;;10.4;;
38220;SDS011;24023;51.280;7.148;2022-12-18T15:20:09;12.0;;;10.4;;
38220;SDS011;24023;51.280;7.148;2022-12-18T15:25:20;11.9;;;9.1;;
38220;SDS011;24023;51.280;7.148;2022-12-18T15:30:16;11.9;;;9.1;;
38220;SDS011;24023;51.280;7.148;2022-12-18T15:35:08;11.9;;;9.1;;
38220;SDS011;24023;51.280;7.148;2022-12-18T15:40:08;12.2;;;9.8;;
38220;SDS011;24023;51.280;7.148;2022-12-18T15:45:11;12.2;;;9.8;;
38220;SDS011;24023;51.280;7.148;2022-12-18T15:50:08;12.1;;;9.9;;
38220;SDS011;24023;51.280;7.148;2022-12-18T16:00:11;12.1;;;9.9;;
38220;SDS011;24023;51.280;7.148;2022-12-18T16:05:08;12.7;;;11.1;;
38220;SDS011;24023;51.280;7.148;2022-12-18T16:10:08;12.7;;;11.1;;
38220;SDS011;24023;51.280;7.148;2022-12-18T16:15:09;13.7;;;11.2;;
38220;SDS011;24023;51.280;7.148;2022-12-18T16:20:08;13.7;;;11.2;;
38220;SDS011;24023;51.280;7.148;2022-12-18T16:25:08;17.3;;;14.3;;
38220;SDS011;24023;51.280;7.148;2022-12-18T16:30:12;17.3;;;14.3;;
38220;SDS011;24023;51.280;7.148;2022-12-18T16:35:08;13.8;;;12.3;;
38220;SDS011;24023;51.280;7.148;2022-12-18T16:40:10;13.8;;;12.3;;
38220;SDS011;24023;51.280;7.148;2022-12-18T16:45:09;17.1;;;13.2;;
38220;SDS011;24023;51.280;7.148;2022-12-18T16:50:09;17.1;;;13.2;;
38220;SDS011;24023;51.280;7.148;2022-12-18T16:55:07;15.3;;;13.1;;
38220;SDS011;24023;51.280;7.148;2022-12-18T17:00:13;15.3;;;13.1;;
38220;SDS011;24023;51.280;7.148;2022-12-18T17:05:06;16.4;;;13.2;;
38220;SDS011;24023;51.280;7.148;2022-12-18T20:15:08;22.4;;;17.0;;
38220;SDS011;24023;51.280;7.148;2022-12-18T20:20:10;22.4;;;17.0;;
38220;SDS011;24023;51.280;7.148;2022-12-18T20:25:06;22.4;;;17.0;;
38220;SDS011;24023;51.280;7.148;2022-12-18T20:30:10;21.4;;;16.7;;
38220;SDS011;24023;51.280;7.148;2022-12-18T20:35:06;21.4;;;16.7;;
38220;SDS011;24023;51.280;7.148;2022-12-18T20:40:08;20.8;;;15.9;;
38220;SDS011;24023;51.280;7.148;2022-12-18T20:45:09;20.8;;;15.9;;
38220;SDS011;24023;51.280;7.148;2022-12-18T20:50:08;20.8;;;16.5;;
38220;SDS011;24023;51.280;7.148;2022-12-18T20:55:06;20.8;;;16.5;;
38220;SDS011;24023;51.280;7.148;2022-12-18T21:00:11;20.8;;;16.5;;
38220;SDS011;24023;51.280;7.148;2022-12-18T21:05:07;20.8;;;16.1;;
38220;SDS011;24023;51.280;7.148;2022-12-18T21:10:07;20.8;;;16.1;;
38220;SDS011;24023;51.280;7.148;2022-12-18T21:15:08;20.7;;;16.2;;
38220;SDS011;24023;51.280;7.148;2022-12-18T21:20:09;20.7;;;16.2;;
38220;SDS011;24023;51.280;7.148;2022-12-18T21:25:06;20.7;;;16.2;;
38220;SDS011;24023;51.280;7.148;2022-12-18T21:30:09;19.2;;;15.0;;
38220;SDS011;24023;51.280;7.148;2022-12-18T21:35:06;21.3;;;15.9;;
38220;SDS011;24023;51.280;7.148;2022-12-18T21:40:08;21.3;;;15.9;;
38220;SDS011;24023;51.280;7.148;2022-12-18T21:45:11;21.0;;;15.4;;
38220;SDS011;24023;51.280;7.148;2022-12-18T21:50:08;21.0;;;15.4;;
38220;SDS011;24023;51.280;7.148;2022-12-18T21:55:06;21.0;;;15.4;;
38220;SDS011;24023;51.280;7.148;2022-12-18T22:00:11;21.3;;;16.4;;
38220;SDS011;24023;51.280;7.148;2022-12-18T22:05:06;17.0;;;12.7;;
38220;SDS011;24023;51.280;7.148;2022-12-18T22:10:08;17.0;;;12.7;;
38220;SDS011;24023;51.280;7.148;2022-12-18T22:15:08;17.7;;;13.6;;
38220;SDS011;24023;51.280;7.148;2022-12-18T22:20:09;17.7;;;13.6;;
38220;SDS011;24023;51.280;7.148;2022-12-18T22:25:06;20.5;;;14.3;;
38220;SDS011;24023;51.280;7.148;2022-12-18T22:30:09;20.5;;;14.3;;
38220;SDS011;24023;51.280;7.148;2022-12-18T22:35:06;19.4;;;13.5;;
38220;SDS011;24023;51.280;7.148;2022-12-18T22:40:08;19.4;;;13.5;;
38220;SDS011;24023;51.280;7.148;2022-12-18T22:45:09;20.4;;;15.9;;
38220;SDS011;24023;51.280;7.148;2022-12-18T22:50:08;20.4;;;15.9;;
38220;SDS011;24023;51.280;7.148;2022-12-18T22:55:07;22.0;;;16.5;;
38220;SDS011;24023;51.280;7.148;2022-12-18T23:00:17;22.0;;;16.5;;
38220;SDS011;24023;51.280;7.148;2022-12-18T23:05:07;20.4;;;16.0;;
38220;SDS011;24023;51.280;7.148;2022-12-18T23:10:07;20.4;;;16.0;;
38220;SDS011;24023;51.280;7.148;2022-12-18T23:15:07;19.6;;;14.6;;
38220;SDS011;24023;51.280;7.148;2022-12-18T23:20:07;19.6;;;14.6;;
38220;SDS011;24023;51.280;7.148;2022-12-18T23:25:07;19.6;;;14.6;;
38220;SDS011;24023;51.280;7.148;2022-12-18T23:30:09;20.5;;;15.5;;
38220;SDS011;24023;51.280;7.148;2022-12-18T23:35:07;20.5;;;15.5;;
38220;SDS011;24023;51.280;7.148;2022-12-18T23:40:08;19.3;;;15.1;;
38220;SDS011;24023;51.280;7.148;2022-12-18T23:45:10;19.3;;;15.1;;
38220;SDS011;24023;51.280;7.148;2022-12-18T23:50:12;20.3;;;15.8;;
38220;SDS011;24023;51.280;7.148;2022-12-18T23:55:07;20.3;;;15.8;;
